sensor_id;sensor_type;location;lat;lon;timestamp;P1;P2;P0
47705;PMS5003;33471;52.104;1.318;2022-07-15T00:01:07;5;5;
47705;PMS5003;33471;52.104;1.318;2022-07-15T00:03:34;5;4;
47705;PMS5003;33471;52.104;1.318;2022-07-15T00:06:02;7;6;
47705;PMS5003;33471;52.104;1.318;2022-07-15T00:08:29;5;5;
47705;PMS5003;33471;52.104;1.318;2022-07-15T00:10:56;5;5;
47705;PMS5003;33471;52.104;1.318;2022-07-15T00:13:23;6;6;
47705;PMS5003;33471;52.104;1.318;2022-07-15T00:15:50;5;5;
47705;PMS5003;33471;52.104;1.318;2022-07-15T00:18:18;7;7;
47705;PMS5003;33471;52.104;1.318;2022-07-15T00:20:45;6;6;
47705;PMS5003;33471;52.104;1.318;2022-07-15T00:23:12;7;6;
47705;PMS5003;33471;52.104;1.318;2022-07-15T00:25:39;7;7;
47705;PMS5003;33471;52.104;1.318;2022-07-15T00:28:07;7;7;
47705;PMS5003;33471;52.104;1.318;2022-07-15T00:30:35;8;8;
47705;PMS5003;33471;52.104;1.318;2022-07-15T00:33:03;6;6;
47705;PMS5003;33471;52.104;1.318;2022-07-15T00:35:32;5;5;
47705;PMS5003;33471;52.104;1.318;2022-07-15T00:38:01;12;11;
47705;PMS5003;33471;52.104;1.318;2022-07-15T00:40:29;6;6;
47705;PMS5003;33471;52.104;1.318;2022-07-15T00:42:56;8;7;
47705;PMS5003;33471;52.104;1.318;2022-07-15T00:45:24;6;5;
47705;PMS5003;33471;52.104;1.318;2022-07-15T00:47:52;7;7;
47705;PMS5003;33471;52.104;1.318;2022-07-15T00:50:22;6;5;
47705;PMS5003;33471;52.104;1.318;2022-07-15T00:52:53;8;8;
47705;PMS5003;33471;52.104;1.318;2022-07-15T00:55:22;6;6;
47705;PMS5003;33471;52.104;1.318;2022-07-15T00:57:52;5;5;
47705;PMS5003;33471;52.104;1.318;2022-07-15T01:00:23;8;7;
47705;PMS5003;33471;52.104;1.318;2022-07-15T01:02:51;7;7;
47705;PMS5003;33471;52.104;1.318;2022-07-15T01:05:21;6;6;
47705;PMS5003;33471;52.104;1.318;2022-07-15T01:07:49;7;7;
47705;PMS5003;33471;52.104;1.318;2022-07-15T01:10:16;7;7;
47705;PMS5003;33471;52.104;1.318;2022-07-15T01:12:45;6;4;
47705;PMS5003;33471;52.104;1.318;2022-07-15T01:15:13;7;6;
47705;PMS5003;33471;52.104;1.318;2022-07-15T01:17:41;5;5;
47705;PMS5003;33471;52.104;1.318;2022-07-15T01:20:09;5;5;
47705;PMS5003;33471;52.104;1.318;2022-07-15T01:22:38;7;7;
47705;PMS5003;33471;52.104;1.318;2022-07-15T01:25:06;7;7;
47705;PMS5003;33471;52.104;1.318;2022-07-15T01:27:34;6;6;
47705;PMS5003;33471;52.104;1.318;2022-07-15T01:30:01;6;6;
47705;PMS5003;33471;52.104;1.318;2022-07-15T01:32:29;6;5;
47705;PMS5003;33471;52.104;1.318;2022-07-15T01:34:56;4;4;
47705;PMS5003;33471;52.104;1.318;2022-07-15T01:37:24;5;5;
47705;PMS5003;33471;52.104;1.318;2022-07-15T01:39:51;6;6;
47705;PMS5003;33471;52.104;1.318;2022-07-15T01:42:19;5;5;
47705;PMS5003;33471;52.104;1.318;2022-07-15T01:44:46;7;7;
47705;PMS5003;33471;52.104;1.318;2022-07-15T01:47:13;8;8;
47705;PMS5003;33471;52.104;1.318;2022-07-15T01:49:41;7;6;
47705;PMS5003;33471;52.104;1.318;2022-07-15T01:52:08;9;8;
47705;PMS5003;33471;52.104;1.318;2022-07-15T01:54:36;6;6;
47705;PMS5003;33471;52.104;1.318;2022-07-15T01:57:04;7;6;
47705;PMS5003;33471;52.104;1.318;2022-07-15T01:59:31;8;7;
47705;PMS5003;33471;52.104;1.318;2022-07-15T02:01:59;6;5;
47705;PMS5003;33471;52.104;1.318;2022-07-15T02:04:27;6;5;
47705;PMS5003;33471;52.104;1.318;2022-07-15T02:06:54;6;6;
47705;PMS5003;33471;52.104;1.318;2022-07-15T02:09:21;8;7;
47705;PMS5003;33471;52.104;1.318;2022-07-15T02:11:49;11;7;
47705;PMS5003;33471;52.104;1.318;2022-07-15T02:14:16;7;7;
47705;PMS5003;33471;52.104;1.318;2022-07-15T02:16:44;8;8;
47705;PMS5003;33471;52.104;1.318;2022-07-15T02:19:11;6;6;
47705;PMS5003;33471;52.104;1.318;2022-07-15T02:21:39;6;6;
47705;PMS5003;33471;52.104;1.318;2022-07-15T02:24:06;7;7;
47705;PMS5003;33471;52.104;1.318;2022-07-15T02:26:34;8;8;
47705;PMS5003;33471;52.104;1.318;2022-07-15T02:29:01;8;7;
47705;PMS5003;33471;52.104;1.318;2022-07-15T02:31:29;12;12;
47705;PMS5003;33471;52.104;1.318;2022-07-15T02:33:56;9;7;
47705;PMS5003;33471;52.104;1.318;2022-07-15T02:36:23;12;8;
47705;PMS5003;33471;52.104;1.318;2022-07-15T02:38:51;9;9;
47705;PMS5003;33471;52.104;1.318;2022-07-15T02:41:19;9;8;
47705;PMS5003;33471;52.104;1.318;2022-07-15T02:43:46;11;10;
47705;PMS5003;33471;52.104;1.318;2022-07-15T02:46:14;8;6;
47705;PMS5003;33471;52.104;1.318;2022-07-15T02:48:42;8;8;
47705;PMS5003;33471;52.104;1.318;2022-07-15T02:51:10;10;10;
47705;PMS5003;33471;52.104;1.318;2022-07-15T02:53:37;8;8;
47705;PMS5003;33471;52.104;1.318;2022-07-15T02:56:04;8;8;
47705;PMS5003;33471;52.104;1.318;2022-07-15T02:58:34;10;10;
47705;PMS5003;33471;52.104;1.318;2022-07-15T03:01:01;9;9;
47705;PMS5003;33471;52.104;1.318;2022-07-15T03:03:28;12;10;
47705;PMS5003;33471;52.104;1.318;2022-07-15T03:05:55;7;7;
47705;PMS5003;33471;52.104;1.318;2022-07-15T03:08:23;13;9;
47705;PMS5003;33471;52.104;1.318;2022-07-15T03:10:51;12;10;
47705;PMS5003;33471;52.104;1.318;2022-07-15T03:13:20;17;17;
47705;PMS5003;33471;52.104;1.318;2022-07-15T03:15:47;11;10;
47705;PMS5003;33471;52.104;1.318;2022-07-15T03:18:14;9;9;
47705;PMS5003;33471;52.104;1.318;2022-07-15T03:20:41;11;10;
47705;PMS5003;33471;52.104;1.318;2022-07-15T03:23:09;7;7;
47705;PMS5003;33471;52.104;1.318;2022-07-15T03:25:36;7;7;
47705;PMS5003;33471;52.104;1.318;2022-07-15T03:28:04;11;11;
47705;PMS5003;33471;52.104;1.318;2022-07-15T03:30:31;10;9;
47705;PMS5003;33471;52.104;1.318;2022-07-15T03:32:58;10;9;
47705;PMS5003;33471;52.104;1.318;2022-07-15T03:35:25;8;7;
47705;PMS5003;33471;52.104;1.318;2022-07-15T03:37:52;8;8;
47705;PMS5003;33471;52.104;1.318;2022-07-15T03:40:20;7;7;
47705;PMS5003;33471;52.104;1.318;2022-07-15T03:42:47;10;8;
47705;PMS5003;33471;52.104;1.318;2022-07-15T03:45:15;8;8;
47705;PMS5003;33471;52.104;1.318;2022-07-15T03:47:42;8;8;
47705;PMS5003;33471;52.104;1.318;2022-07-15T03:50:09;9;9;
47705;PMS5003;33471;52.104;1.318;2022-07-15T03:52:36;10;9;
47705;PMS5003;33471;52.104;1.318;2022-07-15T03:55:04;13;12;
47705;PMS5003;33471;52.104;1.318;2022-07-15T03:57:33;11;7;
47705;PMS5003;33471;52.104;1.318;2022-07-15T04:00:01;11;11;
47705;PMS5003;33471;52.104;1.318;2022-07-15T04:02:28;13;12;
47705;PMS5003;33471;52.104;1.318;2022-07-15T04:04:56;9;9;
47705;PMS5003;33471;52.104;1.318;2022-07-15T04:07:23;8;7;
47705;PMS5003;33471;52.104;1.318;2022-07-15T04:09:50;9;9;
47705;PMS5003;33471;52.104;1.318;2022-07-15T04:12:18;7;6;
47705;PMS5003;33471;52.104;1.318;2022-07-15T04:14:46;9;9;
47705;PMS5003;33471;52.104;1.318;2022-07-15T04:17:13;9;9;
47705;PMS5003;33471;52.104;1.318;2022-07-15T04:19:40;10;9;
47705;PMS5003;33471;52.104;1.318;2022-07-15T04:22:07;8;8;
47705;PMS5003;33471;52.104;1.318;2022-07-15T04:24:34;7;7;
47705;PMS5003;33471;52.104;1.318;2022-07-15T04:27:02;8;8;
47705;PMS5003;33471;52.104;1.318;2022-07-15T04:29:29;10;10;
47705;PMS5003;33471;52.104;1.318;2022-07-15T04:31:57;9;9;
47705;PMS5003;33471;52.104;1.318;2022-07-15T04:34:24;8;8;
47705;PMS5003;33471;52.104;1.318;2022-07-15T04:36:51;6;6;
47705;PMS5003;33471;52.104;1.318;2022-07-15T04:39:19;7;7;
47705;PMS5003;33471;52.104;1.318;2022-07-15T04:41:46;7;7;
47705;PMS5003;33471;52.104;1.318;2022-07-15T04:44:13;8;8;
47705;PMS5003;33471;52.104;1.318;2022-07-15T04:46:40;12;10;
47705;PMS5003;33471;52.104;1.318;2022-07-15T04:49:08;6;6;
47705;PMS5003;33471;52.104;1.318;2022-07-15T04:51:36;8;8;
47705;PMS5003;33471;52.104;1.318;2022-07-15T04:54:03;8;8;
47705;PMS5003;33471;52.104;1.318;2022-07-15T04:56:30;9;8;
47705;PMS5003;33471;52.104;1.318;2022-07-15T04:58:57;10;9;
47705;PMS5003;33471;52.104;1.318;2022-07-15T05:01:24;9;8;
47705;PMS5003;33471;52.104;1.318;2022-07-15T05:03:52;7;6;
47705;PMS5003;33471;52.104;1.318;2022-07-15T05:06:20;8;6;
47705;PMS5003;33471;52.104;1.318;2022-07-15T05:08:47;9;6;
47705;PMS5003;33471;52.104;1.318;2022-07-15T05:11:14;7;7;
47705;PMS5003;33471;52.104;1.318;2022-07-15T05:13:41;7;6;
47705;PMS5003;33471;52.104;1.318;2022-07-15T05:16:09;7;7;
47705;PMS5003;33471;52.104;1.318;2022-07-15T05:18:36;5;5;
47705;PMS5003;33471;52.104;1.318;2022-07-15T05:21:03;9;9;
47705;PMS5003;33471;52.104;1.318;2022-07-15T05:23:30;6;6;
47705;PMS5003;33471;52.104;1.318;2022-07-15T05:25:58;5;5;
47705;PMS5003;33471;52.104;1.318;2022-07-15T05:28:26;10;10;
47705;PMS5003;33471;52.104;1.318;2022-07-15T05:30:53;6;6;
47705;PMS5003;33471;52.104;1.318;2022-07-15T05:33:21;8;8;
47705;PMS5003;33471;52.104;1.318;2022-07-15T05:35:48;5;5;
47705;PMS5003;33471;52.104;1.318;2022-07-15T05:38:15;5;5;
47705;PMS5003;33471;52.104;1.318;2022-07-15T05:40:43;3;3;
47705;PMS5003;33471;52.104;1.318;2022-07-15T05:43:10;4;4;
47705;PMS5003;33471;52.104;1.318;2022-07-15T05:45:37;6;6;
47705;PMS5003;33471;52.104;1.318;2022-07-15T05:48:05;10;10;
47705;PMS5003;33471;52.104;1.318;2022-07-15T05:50:33;5;5;
47705;PMS5003;33471;52.104;1.318;2022-07-15T05:53:00;5;5;
47705;PMS5003;33471;52.104;1.318;2022-07-15T05:55:27;5;5;
47705;PMS5003;33471;52.104;1.318;2022-07-15T05:57:55;8;7;
47705;PMS5003;33471;52.104;1.318;2022-07-15T06:00:22;5;4;
47705;PMS5003;33471;52.104;1.318;2022-07-15T06:02:50;6;6;
47705;PMS5003;33471;52.104;1.318;2022-07-15T06:05:17;5;5;
47705;PMS5003;33471;52.104;1.318;2022-07-15T06:07:45;5;5;
47705;PMS5003;33471;52.104;1.318;2022-07-15T06:10:12;4;4;
47705;PMS5003;33471;52.104;1.318;2022-07-15T06:12:39;3;3;
47705;PMS5003;33471;52.104;1.318;2022-07-15T06:15:07;4;4;
47705;PMS5003;33471;52.104;1.318;2022-07-15T06:17:35;5;4;
47705;PMS5003;33471;52.104;1.318;2022-07-15T06:20:03;6;6;
47705;PMS5003;33471;52.104;1.318;2022-07-15T06:22:31;5;5;
47705;PMS5003;33471;52.104;1.318;2022-07-15T06:24:59;4;4;
47705;PMS5003;33471;52.104;1.318;2022-07-15T06:27:28;4;4;
47705;PMS5003;33471;52.104;1.318;2022-07-15T06:29:57;4;3;
47705;PMS5003;33471;52.104;1.318;2022-07-15T06:32:25;3;3;
47705;PMS5003;33471;52.104;1.318;2022-07-15T06:34:52;5;5;
47705;PMS5003;33471;52.104;1.318;2022-07-15T06:37:20;6;5;
47705;PMS5003;33471;52.104;1.318;2022-07-15T06:39:48;4;4;
47705;PMS5003;33471;52.104;1.318;2022-07-15T06:42:16;6;6;
47705;PMS5003;33471;52.104;1.318;2022-07-15T06:44:43;6;6;
47705;PMS5003;33471;52.104;1.318;2022-07-15T06:47:10;5;5;
47705;PMS5003;33471;52.104;1.318;2022-07-15T06:49:37;3;3;
47705;PMS5003;33471;52.104;1.318;2022-07-15T06:52:04;3;3;
47705;PMS5003;33471;52.104;1.318;2022-07-15T06:54:32;3;3;
47705;PMS5003;33471;52.104;1.318;2022-07-15T06:57:00;6;5;
47705;PMS5003;33471;52.104;1.318;2022-07-15T06:59:27;4;4;
47705;PMS5003;33471;52.104;1.318;2022-07-15T07:01:55;6;5;
47705;PMS5003;33471;52.104;1.318;2022-07-15T07:04:22;7;5;
47705;PMS5003;33471;52.104;1.318;2022-07-15T07:06:49;8;5;
47705;PMS5003;33471;52.104;1.318;2022-07-15T07:09:16;5;4;
47705;PMS5003;33471;52.104;1.318;2022-07-15T07:11:44;4;4;
47705;PMS5003;33471;52.104;1.318;2022-07-15T07:14:12;5;5;
47705;PMS5003;33471;52.104;1.318;2022-07-15T07:16:39;4;4;
47705;PMS5003;33471;52.104;1.318;2022-07-15T07:19:06;8;5;
47705;PMS5003;33471;52.104;1.318;2022-07-15T07:21:33;4;4;
47705;PMS5003;33471;52.104;1.318;2022-07-15T07:24:00;5;5;
47705;PMS5003;33471;52.104;1.318;2022-07-15T07:26:29;4;4;
47705;PMS5003;33471;52.104;1.318;2022-07-15T07:28:56;4;2;
47705;PMS5003;33471;52.104;1.318;2022-07-15T07:31:23;4;4;
47705;PMS5003;33471;52.104;1.318;2022-07-15T07:33:50;6;5;
47705;PMS5003;33471;52.104;1.318;2022-07-15T07:36:18;4;3;
47705;PMS5003;33471;52.104;1.318;2022-07-15T07:38:45;2;2;
47705;PMS5003;33471;52.104;1.318;2022-07-15T07:41:12;4;4;
47705;PMS5003;33471;52.104;1.318;2022-07-15T07:43:39;3;3;
47705;PMS5003;33471;52.104;1.318;2022-07-15T07:46:07;3;3;
47705;PMS5003;33471;52.104;1.318;2022-07-15T07:48:34;2;2;
47705;PMS5003;33471;52.104;1.318;2022-07-15T07:51:03;3;3;
47705;PMS5003;33471;52.104;1.318;2022-07-15T07:53:31;3;3;
47705;PMS5003;33471;52.104;1.318;2022-07-15T07:55:58;4;4;
47705;PMS5003;33471;52.104;1.318;2022-07-15T07:58:25;2;2;
47705;PMS5003;33471;52.104;1.318;2022-07-15T08:00:53;2;2;
47705;PMS5003;33471;52.104;1.318;2022-07-15T08:03:20;4;3;
47705;PMS5003;33471;52.104;1.318;2022-07-15T08:05:48;3;2;
47705;PMS5003;33471;52.104;1.318;2022-07-15T08:08:16;5;3;
47705;PMS5003;33471;52.104;1.318;2022-07-15T08:10:46;2;2;
47705;PMS5003;33471;52.104;1.318;2022-07-15T08:13:14;1;1;
47705;PMS5003;33471;52.104;1.318;2022-07-15T08:15:43;0;0;
47705;PMS5003;33471;52.104;1.318;2022-07-15T08:18:11;1;1;
47705;PMS5003;33471;52.104;1.318;2022-07-15T08:20:40;2;2;
47705;PMS5003;33471;52.104;1.318;2022-07-15T08:23:07;2;2;
47705;PMS5003;33471;52.104;1.318;2022-07-15T08:25:35;2;2;
47705;PMS5003;33471;52.104;1.318;2022-07-15T08:28:04;1;1;
47705;PMS5003;33471;52.104;1.318;2022-07-15T08:30:32;2;2;
47705;PMS5003;33471;52.104;1.318;2022-07-15T08:33:00;2;2;
47705;PMS5003;33471;52.104;1.318;2022-07-15T08:35:29;3;2;
47705;PMS5003;33471;52.104;1.318;2022-07-15T08:37:56;0;0;
47705;PMS5003;33471;52.104;1.318;2022-07-15T08:40:23;1;1;
47705;PMS5003;33471;52.104;1.318;2022-07-15T08:42:52;2;0;
47705;PMS5003;33471;52.104;1.318;2022-07-15T08:45:20;0;0;
47705;PMS5003;33471;52.104;1.318;2022-07-15T08:47:47;1;1;
47705;PMS5003;33471;52.104;1.318;2022-07-15T08:50:17;1;1;
47705;PMS5003;33471;52.104;1.318;2022-07-15T08:52:46;1;0;
47705;PMS5003;33471;52.104;1.318;2022-07-15T08:55:14;0;0;
47705;PMS5003;33471;52.104;1.318;2022-07-15T08:57:44;2;2;
47705;PMS5003;33471;52.104;1.318;2022-07-15T09:00:13;1;1;
47705;PMS5003;33471;52.104;1.318;2022-07-15T09:02:42;1;1;
47705;PMS5003;33471;52.104;1.318;2022-07-15T09:05:18;3;2;
47705;PMS5003;33471;52.104;1.318;2022-07-15T09:07:52;3;3;
47705;PMS5003;33471;52.104;1.318;2022-07-15T09:10:25;1;1;
47705;PMS5003;33471;52.104;1.318;2022-07-15T09:13:08;1;1;
47705;PMS5003;33471;52.104;1.318;2022-07-15T09:15:38;1;1;
47705;PMS5003;33471;52.104;1.318;2022-07-15T09:18:08;2;2;
47705;PMS5003;33471;52.104;1.318;2022-07-15T09:20:38;2;2;
47705;PMS5003;33471;52.104;1.318;2022-07-15T09:23:07;2;2;
47705;PMS5003;33471;52.104;1.318;2022-07-15T09:25:36;4;4;
47705;PMS5003;33471;52.104;1.318;2022-07-15T09:28:05;1;1;
47705;PMS5003;33471;52.104;1.318;2022-07-15T09:30:34;2;2;
47705;PMS5003;33471;52.104;1.318;2022-07-15T09:33:03;1;1;
47705;PMS5003;33471;52.104;1.318;2022-07-15T09:35:34;2;2;
47705;PMS5003;33471;52.104;1.318;2022-07-15T09:38:01;1;1;
47705;PMS5003;33471;52.104;1.318;2022-07-15T09:40:28;1;1;
47705;PMS5003;33471;52.104;1.318;2022-07-15T09:43:03;2;2;
47705;PMS5003;33471;52.104;1.318;2022-07-15T09:45:32;3;3;
47705;PMS5003;33471;52.104;1.318;2022-07-15T09:48:07;1;1;
47705;PMS5003;33471;52.104;1.318;2022-07-15T09:50:35;2;2;
47705;PMS5003;33471;52.104;1.318;2022-07-15T09:53:04;1;1;
47705;PMS5003;33471;52.104;1.318;2022-07-15T09:55:36;2;2;
47705;PMS5003;33471;52.104;1.318;2022-07-15T09:58:03;0;0;
47705;PMS5003;33471;52.104;1.318;2022-07-15T10:00:31;2;2;
47705;PMS5003;33471;52.104;1.318;2022-07-15T10:02:58;2;2;
47705;PMS5003;33471;52.104;1.318;2022-07-15T10:05:25;3;2;
47705;PMS5003;33471;52.104;1.318;2022-07-15T10:07:53;0;0;
47705;PMS5003;33471;52.104;1.318;2022-07-15T10:10:22;2;2;
47705;PMS5003;33471;52.104;1.318;2022-07-15T10:12:54;2;2;
47705;PMS5003;33471;52.104;1.318;2022-07-15T10:15:33;2;2;
47705;PMS5003;33471;52.104;1.318;2022-07-15T10:18:19;3;3;
47705;PMS5003;33471;52.104;1.318;2022-07-15T10:21:02;2;2;
47705;PMS5003;33471;52.104;1.318;2022-07-15T10:23:42;2;2;
47705;PMS5003;33471;52.104;1.318;2022-07-15T10:26:28;3;3;
47705;PMS5003;33471;52.104;1.318;2022-07-15T10:29:07;2;2;
47705;PMS5003;33471;52.104;1.318;2022-07-15T10:31:36;1;1;
47705;PMS5003;33471;52.104;1.318;2022-07-15T10:34:21;2;2;
47705;PMS5003;33471;52.104;1.318;2022-07-15T10:36:57;1;1;
47705;PMS5003;33471;52.104;1.318;2022-07-15T10:39:27;3;3;
47705;PMS5003;33471;52.104;1.318;2022-07-15T10:42:13;4;2;
47705;PMS5003;33471;52.104;1.318;2022-07-15T10:44:48;2;2;
47705;PMS5003;33471;52.104;1.318;2022-07-15T10:47:28;2;2;
47705;PMS5003;33471;52.104;1.318;2022-07-15T10:49:56;1;1;
47705;PMS5003;33471;52.104;1.318;2022-07-15T10:52:24;1;1;
47705;PMS5003;33471;52.104;1.318;2022-07-15T10:54:59;1;1;
47705;PMS5003;33471;52.104;1.318;2022-07-15T10:57:50;2;2;
47705;PMS5003;33471;52.104;1.318;2022-07-15T11:00:29;1;1;
47705;PMS5003;33471;52.104;1.318;2022-07-15T11:03:01;2;2;
47705;PMS5003;33471;52.104;1.318;2022-07-15T11:05:30;0;0;
47705;PMS5003;33471;52.104;1.318;2022-07-15T11:07:58;2;2;
47705;PMS5003;33471;52.104;1.318;2022-07-15T11:10:26;2;2;
47705;PMS5003;33471;52.104;1.318;2022-07-15T11:12:55;4;4;
47705;PMS5003;33471;52.104;1.318;2022-07-15T11:15:25;4;2;
47705;PMS5003;33471;52.104;1.318;2022-07-15T11:17:54;2;1;
47705;PMS5003;33471;52.104;1.318;2022-07-15T11:20:23;2;2;
47705;PMS5003;33471;52.104;1.318;2022-07-15T11:22:55;2;2;
47705;PMS5003;33471;52.104;1.318;2022-07-15T11:25:24;2;2;
47705;PMS5003;33471;52.104;1.318;2022-07-15T11:27:55;1;1;
47705;PMS5003;33471;52.104;1.318;2022-07-15T11:30:24;2;0;
47705;PMS5003;33471;52.104;1.318;2022-07-15T11:32:56;1;1;
47705;PMS5003;33471;52.104;1.318;2022-07-15T11:35:25;1;1;
47705;PMS5003;33471;52.104;1.318;2022-07-15T11:37:57;3;2;
47705;PMS5003;33471;52.104;1.318;2022-07-15T11:40:26;2;2;
47705;PMS5003;33471;52.104;1.318;2022-07-15T11:42:54;1;1;
47705;PMS5003;33471;52.104;1.318;2022-07-15T11:45:38;2;2;
47705;PMS5003;33471;52.104;1.318;2022-07-15T11:48:05;1;1;
47705;PMS5003;33471;52.104;1.318;2022-07-15T11:50:33;3;2;
47705;PMS5003;33471;52.104;1.318;2022-07-15T11:53:02;2;2;
47705;PMS5003;33471;52.104;1.318;2022-07-15T11:55:46;2;2;
47705;PMS5003;33471;52.104;1.318;2022-07-15T11:58:14;2;1;
47705;PMS5003;33471;52.104;1.318;2022-07-15T12:00:46;2;2;
47705;PMS5003;33471;52.104;1.318;2022-07-15T12:03:14;2;2;
47705;PMS5003;33471;52.104;1.318;2022-07-15T12:05:41;2;2;
47705;PMS5003;33471;52.104;1.318;2022-07-15T12:08:08;2;2;
47705;PMS5003;33471;52.104;1.318;2022-07-15T12:10:36;1;1;
47705;PMS5003;33471;52.104;1.318;2022-07-15T12:13:03;2;2;
47705;PMS5003;33471;52.104;1.318;2022-07-15T12:15:30;4;3;
47705;PMS5003;33471;52.104;1.318;2022-07-15T12:17:59;1;1;
47705;PMS5003;33471;52.104;1.318;2022-07-15T12:20:27;3;3;
47705;PMS5003;33471;52.104;1.318;2022-07-15T12:23:10;2;2;
47705;PMS5003;33471;52.104;1.318;2022-07-15T12:25:38;2;2;
47705;PMS5003;33471;52.104;1.318;2022-07-15T12:28:06;2;2;
47705;PMS5003;33471;52.104;1.318;2022-07-15T12:30:34;2;2;
47705;PMS5003;33471;52.104;1.318;2022-07-15T12:33:18;3;3;
47705;PMS5003;33471;52.104;1.318;2022-07-15T12:35:47;2;2;
47705;PMS5003;33471;52.104;1.318;2022-07-15T12:38:30;3;3;
47705;PMS5003;33471;52.104;1.318;2022-07-15T12:41:04;1;1;
47705;PMS5003;33471;52.104;1.318;2022-07-15T12:43:49;2;2;
47705;PMS5003;33471;52.104;1.318;2022-07-15T12:46:17;1;1;
47705;PMS5003;33471;52.104;1.318;2022-07-15T12:48:45;2;2;
47705;PMS5003;33471;52.104;1.318;2022-07-15T12:51:14;4;2;
47705;PMS5003;33471;52.104;1.318;2022-07-15T12:53:43;2;2;
47705;PMS5003;33471;52.104;1.318;2022-07-15T12:56:10;2;2;
47705;PMS5003;33471;52.104;1.318;2022-07-15T12:58:38;3;2;
47705;PMS5003;33471;52.104;1.318;2022-07-15T13:01:07;2;2;
47705;PMS5003;33471;52.104;1.318;2022-07-15T13:03:36;4;4;
47705;PMS5003;33471;52.104;1.318;2022-07-15T13:06:05;1;1;
47705;PMS5003;33471;52.104;1.318;2022-07-15T13:08:33;2;2;
47705;PMS5003;33471;52.104;1.318;2022-07-15T13:11:05;1;1;
47705;PMS5003;33471;52.104;1.318;2022-07-15T13:13:33;2;2;
47705;PMS5003;33471;52.104;1.318;2022-07-15T13:16:02;2;2;
47705;PMS5003;33471;52.104;1.318;2022-07-15T13:18:30;2;2;
47705;PMS5003;33471;52.104;1.318;2022-07-15T13:20:59;2;2;
47705;PMS5003;33471;52.104;1.318;2022-07-15T13:23:27;1;1;
47705;PMS5003;33471;52.104;1.318;2022-07-15T13:25:54;2;2;
47705;PMS5003;33471;52.104;1.318;2022-07-15T13:28:22;2;2;
47705;PMS5003;33471;52.104;1.318;2022-07-15T13:30:51;2;2;
47705;PMS5003;33471;52.104;1.318;2022-07-15T13:33:19;7;6;
47705;PMS5003;33471;52.104;1.318;2022-07-15T13:35:47;4;4;
47705;PMS5003;33471;52.104;1.318;2022-07-15T13:38:14;2;2;
47705;PMS5003;33471;52.104;1.318;2022-07-15T13:40:41;2;2;
47705;PMS5003;33471;52.104;1.318;2022-07-15T13:43:09;1;1;
47705;PMS5003;33471;52.104;1.318;2022-07-15T13:45:37;1;1;
47705;PMS5003;33471;52.104;1.318;2022-07-15T13:48:04;4;4;
47705;PMS5003;33471;52.104;1.318;2022-07-15T13:50:32;2;2;
47705;PMS5003;33471;52.104;1.318;2022-07-15T13:52:59;1;1;
47705;PMS5003;33471;52.104;1.318;2022-07-15T13:55:28;4;3;
47705;PMS5003;33471;52.104;1.318;2022-07-15T13:57:56;3;2;
47705;PMS5003;33471;52.104;1.318;2022-07-15T14:00:23;1;1;
47705;PMS5003;33471;52.104;1.318;2022-07-15T14:02:53;3;3;
47705;PMS5003;33471;52.104;1.318;2022-07-15T14:05:22;1;1;
47705;PMS5003;33471;52.104;1.318;2022-07-15T14:07:50;4;4;
47705;PMS5003;33471;52.104;1.318;2022-07-15T14:10:17;1;1;
47705;PMS5003;33471;52.104;1.318;2022-07-15T14:12:44;4;4;
47705;PMS5003;33471;52.104;1.318;2022-07-15T14:15:11;3;3;
47705;PMS5003;33471;52.104;1.318;2022-07-15T14:17:38;3;3;
47705;PMS5003;33471;52.104;1.318;2022-07-15T14:20:06;2;1;
47705;PMS5003;33471;52.104;1.318;2022-07-15T14:22:34;3;3;
47705;PMS5003;33471;52.104;1.318;2022-07-15T14:25:02;2;2;
47705;PMS5003;33471;52.104;1.318;2022-07-15T14:27:30;3;3;
47705;PMS5003;33471;52.104;1.318;2022-07-15T14:29:57;4;4;
47705;PMS5003;33471;52.104;1.318;2022-07-15T14:32:24;1;1;
47705;PMS5003;33471;52.104;1.318;2022-07-15T14:34:52;5;4;
47705;PMS5003;33471;52.104;1.318;2022-07-15T14:37:20;1;1;
47705;PMS5003;33471;52.104;1.318;2022-07-15T14:39:47;2;2;
47705;PMS5003;33471;52.104;1.318;2022-07-15T14:42:15;3;3;
47705;PMS5003;33471;52.104;1.318;2022-07-15T14:44:42;2;2;
47705;PMS5003;33471;52.104;1.318;2022-07-15T14:47:09;4;4;
47705;PMS5003;33471;52.104;1.318;2022-07-15T14:49:36;3;2;
47705;PMS5003;33471;52.104;1.318;2022-07-15T14:52:03;4;4;
47705;PMS5003;33471;52.104;1.318;2022-07-15T14:54:31;6;5;
47705;PMS5003;33471;52.104;1.318;2022-07-15T14:56:58;5;4;
47705;PMS5003;33471;52.104;1.318;2022-07-15T14:59:25;5;5;
47705;PMS5003;33471;52.104;1.318;2022-07-15T15:01:52;4;4;
47705;PMS5003;33471;52.104;1.318;2022-07-15T15:04:20;6;5;
47705;PMS5003;33471;52.104;1.318;2022-07-15T15:06:48;2;2;
47705;PMS5003;33471;52.104;1.318;2022-07-15T15:09:15;3;3;
47705;PMS5003;33471;52.104;1.318;2022-07-15T15:11:42;3;3;
47705;PMS5003;33471;52.104;1.318;2022-07-15T15:14:09;3;3;
47705;PMS5003;33471;52.104;1.318;2022-07-15T15:16:36;3;2;
47705;PMS5003;33471;52.104;1.318;2022-07-15T15:19:03;3;3;
47705;PMS5003;33471;52.104;1.318;2022-07-15T15:21:30;3;3;
47705;PMS5003;33471;52.104;1.318;2022-07-15T15:23:58;4;4;
47705;PMS5003;33471;52.104;1.318;2022-07-15T15:26:26;4;3;
47705;PMS5003;33471;52.104;1.318;2022-07-15T15:28:57;2;2;
47705;PMS5003;33471;52.104;1.318;2022-07-15T15:31:24;3;3;
47705;PMS5003;33471;52.104;1.318;2022-07-15T15:33:52;4;3;
47705;PMS5003;33471;52.104;1.318;2022-07-15T15:36:20;3;3;
47705;PMS5003;33471;52.104;1.318;2022-07-15T15:38:48;2;2;
47705;PMS5003;33471;52.104;1.318;2022-07-15T15:41:15;2;2;
47705;PMS5003;33471;52.104;1.318;2022-07-15T15:43:42;3;3;
47705;PMS5003;33471;52.104;1.318;2022-07-15T15:46:09;4;4;
47705;PMS5003;33471;52.104;1.318;2022-07-15T15:48:36;3;3;
47705;PMS5003;33471;52.104;1.318;2022-07-15T15:51:04;3;3;
47705;PMS5003;33471;52.104;1.318;2022-07-15T15:53:31;3;2;
47705;PMS5003;33471;52.104;1.318;2022-07-15T15:55:58;2;2;
47705;PMS5003;33471;52.104;1.318;2022-07-15T15:58:26;6;6;
47705;PMS5003;33471;52.104;1.318;2022-07-15T16:00:53;4;4;
47705;PMS5003;33471;52.104;1.318;2022-07-15T16:03:21;3;3;
47705;PMS5003;33471;52.104;1.318;2022-07-15T16:05:49;2;2;
47705;PMS5003;33471;52.104;1.318;2022-07-15T16:08:16;2;2;
47705;PMS5003;33471;52.104;1.318;2022-07-15T16:10:49;3;3;
47705;PMS5003;33471;52.104;1.318;2022-07-15T16:13:16;2;2;
47705;PMS5003;33471;52.104;1.318;2022-07-15T16:15:43;3;3;
47705;PMS5003;33471;52.104;1.318;2022-07-15T16:18:10;2;2;
47705;PMS5003;33471;52.104;1.318;2022-07-15T16:20:37;3;3;
47705;PMS5003;33471;52.104;1.318;2022-07-15T16:23:04;4;3;
47705;PMS5003;33471;52.104;1.318;2022-07-15T16:25:32;4;4;
47705;PMS5003;33471;52.104;1.318;2022-07-15T16:28:03;3;3;
47705;PMS5003;33471;52.104;1.318;2022-07-15T16:30:32;4;3;
47705;PMS5003;33471;52.104;1.318;2022-07-15T16:33:00;3;3;
47705;PMS5003;33471;52.104;1.318;2022-07-15T16:35:29;3;3;
47705;PMS5003;33471;52.104;1.318;2022-07-15T16:37:57;2;2;
47705;PMS5003;33471;52.104;1.318;2022-07-15T16:40:25;3;3;
47705;PMS5003;33471;52.104;1.318;2022-07-15T16:42:53;4;2;
47705;PMS5003;33471;52.104;1.318;2022-07-15T16:45:21;3;3;
47705;PMS5003;33471;52.104;1.318;2022-07-15T16:47:48;3;3;
47705;PMS5003;33471;52.104;1.318;2022-07-15T16:50:16;3;3;
47705;PMS5003;33471;52.104;1.318;2022-07-15T16:52:44;3;3;
47705;PMS5003;33471;52.104;1.318;2022-07-15T16:55:12;3;3;
47705;PMS5003;33471;52.104;1.318;2022-07-15T16:57:39;3;3;
47705;PMS5003;33471;52.104;1.318;2022-07-15T17:00:08;1;1;